SWR28L LSGG-LSZH
Flight info
| Callsign | SWR28L |
|---|---|
| Flight time | 0h 40m |
| Altitude | 17000 |
| Route | SOSAL N871 BERSU |
| Aircraft | A320/M-SDE3FGHIRWY/LB1 |
Departure
| Time | 2026-04-26 13:40 |
|---|---|
| Airport | Geneva International Airport (LSGG) |
Arrival
| Time | 2026-04-26 14:21 |
|---|---|
| Airport | Zürich Airport (LSZH) |
| Time | Latitude | Longitude | Altitude | Speed | Heading |
|---|---|---|---|---|---|
| 2026-04-26 13:26 | 46.23031 | 6.10570 | 1398 ft | 0 kts | 135° |
| 2026-04-26 13:29 | 46.23032 | 6.10570 | 1398 ft | 2 kts | 135° |
| 2026-04-26 13:29 | 46.23040 | 6.10558 | 1403 ft | 2 kts | 135° |
| 2026-04-26 13:29 | 46.23056 | 6.10534 | 1401 ft | 3 kts | 135° |
| 2026-04-26 13:29 | 46.23061 | 6.10527 | 1401 ft | 2 kts | 152° |
| 2026-04-26 13:30 | 46.23077 | 6.10523 | 1402 ft | 2 kts | 223° |
| 2026-04-26 13:30 | 46.23083 | 6.10535 | 1399 ft | 2 kts | 227° |
| 2026-04-26 13:30 | 46.23084 | 6.10537 | 1399 ft | 0 kts | 228° |
| 2026-04-26 13:32 | 46.23077 | 6.10525 | 1401 ft | 3 kts | 228° |
| 2026-04-26 13:32 | 46.23063 | 6.10504 | 1401 ft | 5 kts | 223° |
| 2026-04-26 13:32 | 46.23031 | 6.10462 | 1396 ft | 6 kts | 223° |
| 2026-04-26 13:32 | 46.22998 | 6.10411 | 1395 ft | 8 kts | 228° |
| 2026-04-26 13:33 | 46.22965 | 6.10358 | 1395 ft | 6 kts | 228° |
| 2026-04-26 13:33 | 46.22961 | 6.10293 | 1393 ft | 11 kts | 298° |
| 2026-04-26 13:33 | 46.23009 | 6.10225 | 1398 ft | 9 kts | 317° |
| 2026-04-26 13:33 | 46.23049 | 6.10170 | 1399 ft | 6 kts | 314° |
| 2026-04-26 13:34 | 46.23024 | 6.10080 | 1394 ft | 18 kts | 223° |
| 2026-04-26 13:34 | 46.22941 | 6.09960 | 1406 ft | 16 kts | 225° |
| 2026-04-26 13:34 | 46.22866 | 6.09851 | 1404 ft | 14 kts | 225° |
| 2026-04-26 13:34 | 46.22821 | 6.09785 | 1403 ft | 13 kts | 225° |
| 2026-04-26 13:35 | 46.22740 | 6.09668 | 1403 ft | 11 kts | 225° |
| 2026-04-26 13:35 | 46.22688 | 6.09593 | 1398 ft | 10 kts | 225° |
| 2026-04-26 13:35 | 46.22642 | 6.09526 | 1400 ft | 9 kts | 225° |
| 2026-04-26 13:35 | 46.22603 | 6.09469 | 1400 ft | 7 kts | 226° |
| 2026-04-26 13:36 | 46.22565 | 6.09391 | 1408 ft | 16 kts | 243° |
| 2026-04-26 13:36 | 46.22556 | 6.09357 | 1403 ft | 0 kts | 253° |
| 2026-04-26 13:39 | 46.22550 | 6.09301 | 1405 ft | 19 kts | 274° |
| 2026-04-26 13:39 | 46.22590 | 6.09153 | 1416 ft | 11 kts | 332° |
| 2026-04-26 13:39 | 46.22648 | 6.09188 | 1420 ft | 11 kts | 51° |
| 2026-04-26 13:39 | 46.22816 | 6.09442 | 1419 ft | 70 kts | 45° |
| 2026-04-26 13:40 | 46.23314 | 6.10170 | 1403 ft | 131 kts | 45° |
| 2026-04-26 13:40 | 46.24039 | 6.11250 | 1610 ft | 157 kts | 45° |
| 2026-04-26 13:40 | 46.24777 | 6.12373 | 2430 ft | 153 kts | 46° |
| 2026-04-26 13:40 | 46.25527 | 6.13445 | 3231 ft | 150 kts | 42° |
| 2026-04-26 13:41 | 46.26319 | 6.14563 | 3671 ft | 169 kts | 45° |
| 2026-04-26 13:41 | 46.27189 | 6.15831 | 4090 ft | 186 kts | 45° |
| 2026-04-26 13:41 | 46.28123 | 6.17197 | 4682 ft | 195 kts | 44° |
| 2026-04-26 13:41 | 46.29176 | 6.18675 | 4907 ft | 226 kts | 43° |
| 2026-04-26 13:42 | 46.30340 | 6.20360 | 5321 ft | 248 kts | 44° |
| 2026-04-26 13:42 | 46.31574 | 6.22204 | 5889 ft | 263 kts | 45° |
| 2026-04-26 13:42 | 46.32865 | 6.24146 | 6691 ft | 270 kts | 45° |
| 2026-04-26 13:42 | 46.34184 | 6.26123 | 7489 ft | 275 kts | 45° |
| 2026-04-26 13:43 | 46.35561 | 6.28075 | 8319 ft | 279 kts | 37° |
| 2026-04-26 13:43 | 46.37351 | 6.29193 | 9093 ft | 286 kts | 7° |
| 2026-04-26 13:43 | 46.39321 | 6.28987 | 10191 ft | 293 kts | 346° |
| 2026-04-26 13:43 | 46.41347 | 6.28200 | 10895 ft | 316 kts | 345° |
| 2026-04-26 13:44 | 46.43576 | 6.27336 | 11460 ft | 341 kts | 345° |
| 2026-04-26 13:44 | 46.45948 | 6.26428 | 11948 ft | 363 kts | 345° |
| 2026-04-26 13:44 | 46.48415 | 6.25496 | 12772 ft | 373 kts | 345° |
| 2026-04-26 13:44 | 46.50951 | 6.24547 | 13768 ft | 379 kts | 345° |
| 2026-04-26 13:45 | 46.53528 | 6.23588 | 14690 ft | 383 kts | 345° |
| 2026-04-26 13:45 | 46.56126 | 6.22622 | 15576 ft | 387 kts | 344° |
| 2026-04-26 13:45 | 46.58724 | 6.21511 | 16413 ft | 389 kts | 337° |
| 2026-04-26 13:45 | 46.61155 | 6.19790 | 16942 ft | 398 kts | 327° |
| 2026-04-26 13:46 | 46.63408 | 6.17318 | 17119 ft | 413 kts | 315° |
| 2026-04-26 13:46 | 46.65398 | 6.14159 | 17155 ft | 429 kts | 309° |
| 2026-04-26 13:46 | 46.67351 | 6.10856 | 17228 ft | 441 kts | 310° |
| 2026-04-26 13:46 | 46.69357 | 6.07470 | 17692 ft | 444 kts | 310° |
| 2026-04-26 13:47 | 46.71338 | 6.04127 | 17488 ft | 424 kts | 310° |
| 2026-04-26 13:47 | 46.73271 | 6.00912 | 17152 ft | 420 kts | 311° |
| 2026-04-26 13:47 | 46.75219 | 5.97722 | 17155 ft | 421 kts | 311° |
| 2026-04-26 13:47 | 46.77150 | 5.94565 | 17157 ft | 421 kts | 311° |
| 2026-04-26 13:48 | 46.79105 | 5.91380 | 17151 ft | 419 kts | 311° |
| 2026-04-26 13:48 | 46.81039 | 5.88232 | 17152 ft | 419 kts | 311° |
| 2026-04-26 13:48 | 46.82989 | 5.85071 | 17156 ft | 418 kts | 311° |
| 2026-04-26 13:48 | 46.84942 | 5.81910 | 17155 ft | 418 kts | 311° |
| 2026-04-26 13:49 | 46.86894 | 5.78732 | 17152 ft | 418 kts | 311° |
| 2026-04-26 13:49 | 46.88820 | 5.75596 | 17147 ft | 419 kts | 311° |
| 2026-04-26 13:49 | 46.90771 | 5.72437 | 17152 ft | 416 kts | 311° |
| 2026-04-26 13:49 | 46.92716 | 5.69294 | 17154 ft | 415 kts | 311° |
| 2026-04-26 13:50 | 46.94657 | 5.66156 | 17157 ft | 416 kts | 311° |
| 2026-04-26 13:50 | 46.96602 | 5.62997 | 17155 ft | 418 kts | 311° |
| 2026-04-26 13:50 | 46.98610 | 5.59984 | 17161 ft | 418 kts | 319° |
| 2026-04-26 13:50 | 47.01101 | 5.57767 | 17338 ft | 422 kts | 336° |
| 2026-04-26 13:51 | 47.03952 | 5.56651 | 17596 ft | 427 kts | 352° |
| 2026-04-26 13:51 | 47.06930 | 5.56806 | 17870 ft | 433 kts | 9° |
| 2026-04-26 13:51 | 47.09728 | 5.58262 | 18095 ft | 440 kts | 27° |
| 2026-04-26 13:51 | 47.12184 | 5.60976 | 18155 ft | 444 kts | 44° |
| 2026-04-26 13:52 | 47.13972 | 5.64708 | 18156 ft | 448 kts | 63° |
| 2026-04-26 13:52 | 47.14900 | 5.69098 | 18156 ft | 450 kts | 81° |
| 2026-04-26 13:52 | 47.15030 | 5.72125 | 18169 ft | 452 kts | 91° |
| 2026-04-26 13:52 | 47.14205 | 5.78123 | 18161 ft | 451 kts | 109° |
| 2026-04-26 13:53 | 47.13162 | 5.82483 | 18160 ft | 452 kts | 110° |
| 2026-04-26 13:53 | 47.12463 | 5.85378 | 18160 ft | 453 kts | 110° |
| 2026-04-26 13:53 | 47.11400 | 5.89745 | 18158 ft | 453 kts | 110° |
| 2026-04-26 13:53 | 47.09994 | 5.95515 | 18162 ft | 452 kts | 110° |
| 2026-04-26 13:54 | 47.09293 | 5.98402 | 18161 ft | 452 kts | 110° |
| 2026-04-26 13:54 | 47.08232 | 6.02770 | 18164 ft | 453 kts | 110° |
| 2026-04-26 13:54 | 47.07165 | 6.07159 | 18162 ft | 459 kts | 110° |
| 2026-04-26 13:55 | 47.05012 | 6.16006 | 18157 ft | 463 kts | 110° |
| 2026-04-26 13:55 | 47.04292 | 6.18954 | 18161 ft | 463 kts | 110° |
| 2026-04-26 13:55 | 47.01741 | 6.29364 | 18984 ft | 467 kts | 110° |
| 2026-04-26 13:56 | 47.00633 | 6.33879 | 19344 ft | 470 kts | 110° |
| 2026-04-26 13:56 | 46.99520 | 6.38407 | 19731 ft | 471 kts | 110° |
| 2026-04-26 13:56 | 46.98401 | 6.42938 | 20064 ft | 473 kts | 110° |
| 2026-04-26 13:56 | 46.97288 | 6.47435 | 20157 ft | 474 kts | 110° |
| 2026-04-26 13:57 | 46.96164 | 6.51961 | 20170 ft | 473 kts | 110° |
| 2026-04-26 13:57 | 46.95037 | 6.56488 | 20189 ft | 473 kts | 110° |
| 2026-04-26 13:57 | 46.93901 | 6.61040 | 20186 ft | 475 kts | 110° |
| 2026-04-26 13:57 | 46.92781 | 6.65532 | 20186 ft | 475 kts | 110° |
| 2026-04-26 13:58 | 46.91642 | 6.70094 | 20171 ft | 475 kts | 110° |
| 2026-04-26 13:58 | 46.90506 | 6.74626 | 20167 ft | 475 kts | 110° |
| 2026-04-26 13:58 | 46.89367 | 6.79167 | 20168 ft | 476 kts | 110° |
| 2026-04-26 13:58 | 46.88225 | 6.83718 | 20165 ft | 475 kts | 110° |
| 2026-04-26 13:59 | 46.87081 | 6.88265 | 20164 ft | 475 kts | 110° |
| 2026-04-26 13:59 | 46.85950 | 6.92737 | 20163 ft | 475 kts | 110° |
| 2026-04-26 13:59 | 46.84794 | 6.97293 | 20167 ft | 476 kts | 110° |
| 2026-04-26 14:00 | 46.81347 | 7.10822 | 20172 ft | 477 kts | 110° |
| 2026-04-26 14:00 | 46.80205 | 7.15358 | 20172 ft | 476 kts | 108° |
| 2026-04-26 14:00 | 46.79640 | 7.18472 | 20165 ft | 475 kts | 100° |
| 2026-04-26 14:01 | 46.79408 | 7.24927 | 20169 ft | 475 kts | 84° |
| 2026-04-26 14:01 | 46.80028 | 7.29592 | 20170 ft | 473 kts | 71° |
| 2026-04-26 14:01 | 46.81303 | 7.33999 | 20164 ft | 471 kts | 60° |
| 2026-04-26 14:01 | 46.83143 | 7.37929 | 20164 ft | 468 kts | 50° |
| 2026-04-26 14:02 | 46.85185 | 7.41643 | 20165 ft | 468 kts | 50° |
| 2026-04-26 14:02 | 46.87221 | 7.45365 | 20168 ft | 468 kts | 50° |
| 2026-04-26 14:02 | 46.89248 | 7.49084 | 20164 ft | 468 kts | 50° |
| 2026-04-26 14:02 | 46.91252 | 7.52776 | 20163 ft | 468 kts | 50° |
| 2026-04-26 14:03 | 46.93276 | 7.56512 | 20165 ft | 468 kts | 50° |
| 2026-04-26 14:03 | 46.95297 | 7.60249 | 20156 ft | 469 kts | 50° |
| 2026-04-26 14:03 | 46.97328 | 7.64007 | 20161 ft | 470 kts | 50° |
| 2026-04-26 14:03 | 46.99355 | 7.67758 | 20159 ft | 470 kts | 50° |
| 2026-04-26 14:04 | 47.01394 | 7.71523 | 20161 ft | 470 kts | 50° |
| 2026-04-26 14:04 | 47.03431 | 7.75294 | 20158 ft | 470 kts | 50° |
| 2026-04-26 14:04 | 47.05461 | 7.79056 | 20165 ft | 470 kts | 50° |
| 2026-04-26 14:04 | 47.07464 | 7.82768 | 20166 ft | 470 kts | 50° |
| 2026-04-26 14:05 | 47.09498 | 7.86548 | 20168 ft | 469 kts | 50° |
| 2026-04-26 14:05 | 47.11529 | 7.90334 | 20176 ft | 470 kts | 50° |
| 2026-04-26 14:05 | 47.13460 | 7.94232 | 20176 ft | 471 kts | 57° |
| 2026-04-26 14:05 | 47.14951 | 7.98455 | 20178 ft | 473 kts | 64° |
| 2026-04-26 14:06 | 47.16339 | 8.02830 | 20154 ft | 472 kts | 64° |
| 2026-04-26 14:06 | 47.17718 | 8.07161 | 19598 ft | 465 kts | 64° |
| 2026-04-26 14:06 | 47.19093 | 8.11466 | 18846 ft | 461 kts | 63° |
| 2026-04-26 14:06 | 47.20782 | 8.15396 | 18109 ft | 452 kts | 46° |
| 2026-04-26 14:07 | 47.23206 | 8.18234 | 17354 ft | 441 kts | 26° |
| 2026-04-26 14:07 | 47.26026 | 8.19653 | 16631 ft | 431 kts | 7° |
| 2026-04-26 14:07 | 47.28985 | 8.19620 | 15881 ft | 422 kts | 348° |
| 2026-04-26 14:07 | 47.31736 | 8.18197 | 15188 ft | 415 kts | 332° |
| 2026-04-26 14:08 | 47.34266 | 8.16313 | 14598 ft | 395 kts | 331° |
| 2026-04-26 14:08 | 47.36624 | 8.14544 | 14413 ft | 365 kts | 331° |
| 2026-04-26 14:08 | 47.38776 | 8.12926 | 14303 ft | 337 kts | 331° |
| 2026-04-26 14:08 | 47.40801 | 8.11403 | 14170 ft | 314 kts | 332° |
| 2026-04-26 14:09 | 47.42710 | 8.09968 | 13799 ft | 302 kts | 332° |
| 2026-04-26 14:09 | 47.44567 | 8.08574 | 13255 ft | 297 kts | 332° |
| 2026-04-26 14:09 | 47.46411 | 8.07188 | 12592 ft | 295 kts | 331° |
| 2026-04-26 14:09 | 47.48202 | 8.05841 | 12013 ft | 291 kts | 331° |
| 2026-04-26 14:10 | 47.50005 | 8.04484 | 11452 ft | 288 kts | 332° |
| 2026-04-26 14:10 | 47.51797 | 8.03157 | 10869 ft | 286 kts | 333° |
| 2026-04-26 14:10 | 47.53571 | 8.01865 | 10497 ft | 276 kts | 332° |
| 2026-04-26 14:10 | 47.55084 | 8.00228 | 10218 ft | 268 kts | 308° |
| 2026-04-26 14:11 | 47.55979 | 7.95175 | 9762 ft | 255 kts | 269° |
| 2026-04-26 14:11 | 47.55935 | 7.92600 | 9627 ft | 246 kts | 268° |
| 2026-04-26 14:11 | 47.55864 | 7.90106 | 9450 ft | 239 kts | 263° |
| 2026-04-26 14:12 | 47.55323 | 7.87813 | 8971 ft | 244 kts | 233° |
| 2026-04-26 14:12 | 47.54024 | 7.86203 | 8523 ft | 247 kts | 205° |
| 2026-04-26 14:12 | 47.52307 | 7.85663 | 8099 ft | 263 kts | 176° |
| 2026-04-26 14:12 | 47.50451 | 7.86490 | 7989 ft | 301 kts | 147° |
| 2026-04-26 14:13 | 47.48489 | 7.91938 | 7722 ft | 320 kts | 87° |
| 2026-04-26 14:13 | 47.48894 | 7.95131 | 7590 ft | 309 kts | 72° |
| 2026-04-26 14:13 | 47.49679 | 7.98028 | 7463 ft | 295 kts | 65° |
| 2026-04-26 14:14 | 47.50553 | 8.00672 | 7342 ft | 285 kts | 63° |
| 2026-04-26 14:14 | 47.51493 | 8.03491 | 7231 ft | 320 kts | 64° |
| 2026-04-26 14:14 | 47.52434 | 8.06490 | 7103 ft | 327 kts | 65° |
| 2026-04-26 14:14 | 47.53338 | 8.09583 | 6627 ft | 326 kts | 67° |
| 2026-04-26 14:15 | 47.54190 | 8.12693 | 6060 ft | 330 kts | 68° |
| 2026-04-26 14:15 | 47.55075 | 8.16052 | 5445 ft | 359 kts | 68° |
| 2026-04-26 14:15 | 47.55938 | 8.19398 | 5175 ft | 333 kts | 69° |
| 2026-04-26 14:15 | 47.56716 | 8.22433 | 5092 ft | 299 kts | 69° |
| 2026-04-26 14:16 | 47.57417 | 8.25175 | 5021 ft | 270 kts | 69° |
| 2026-04-26 14:16 | 47.58043 | 8.27624 | 4958 ft | 245 kts | 68° |
| 2026-04-26 14:16 | 47.58657 | 8.30008 | 4912 ft | 247 kts | 69° |
| 2026-04-26 14:16 | 47.59269 | 8.32364 | 4847 ft | 249 kts | 68° |
| 2026-04-26 14:17 | 47.59839 | 8.34800 | 4755 ft | 252 kts | 80° |
| 2026-04-26 14:17 | 47.59682 | 8.37354 | 4629 ft | 253 kts | 111° |
| 2026-04-26 14:17 | 47.58646 | 8.39447 | 4228 ft | 255 kts | 134° |
| 2026-04-26 14:17 | 47.57318 | 8.41186 | 3860 ft | 255 kts | 136° |
| 2026-04-26 14:18 | 47.56016 | 8.42911 | 3541 ft | 247 kts | 135° |
| 2026-04-26 14:18 | 47.54774 | 8.44608 | 3210 ft | 237 kts | 134° |
| 2026-04-26 14:18 | 47.53615 | 8.46199 | 2896 ft | 217 kts | 135° |
| 2026-04-26 14:18 | 47.52562 | 8.47642 | 2640 ft | 196 kts | 134° |
| 2026-04-26 14:19 | 47.51610 | 8.48944 | 2358 ft | 176 kts | 134° |
| 2026-04-26 14:19 | 47.50765 | 8.50102 | 2138 ft | 162 kts | 135° |
| 2026-04-26 14:19 | 47.49964 | 8.51200 | 1947 ft | 150 kts | 136° |
| 2026-04-26 14:19 | 47.49226 | 8.52211 | 1729 ft | 140 kts | 133° |
| 2026-04-26 14:20 | 47.48520 | 8.53197 | 1535 ft | 139 kts | 134° |
| 2026-04-26 14:20 | 47.47811 | 8.54157 | 1406 ft | 132 kts | 133° |
| 2026-04-26 14:20 | 47.47227 | 8.54947 | 1401 ft | 94 kts | 139° |
| 2026-04-26 14:20 | 47.46845 | 8.55474 | 1403 ft | 57 kts | 139° |
| 2026-04-26 14:21 | 47.46620 | 8.55671 | 1402 ft | 25 kts | 165° |
| 2026-04-26 14:21 | 47.46539 | 8.55697 | 1406 ft | 4 kts | 171° |